Kanyo Maru — JG5144 — position and weather

sailwx.info

Track history (hours):
 
Tides and Currents Weather Stations Pressure Air Temp Water Temp Dewpoint Dewpoint Depression Visibility Wind Speed Wind Dir Waves Ship Positions

Kanyo Maru

Last reported at 2017-Nov-16 02:53 UTC. Time now 2017-Nov-18 21:55 UTC.
Position N 34°52' E 139°49'.

Length 115 m; draft 6.8 m.

Type: Cargo ship. MMSI: 431300018.

Date/timePositionNaut miles runAvg speedWind from/ knotsBaromVisibWave heightAir tempDewpointWater temp
2017-Nov-16 02:53N 34°52' E 139°49'510.9
2017-Nov-16 02:26N 34°55' E 139°44'512.4
2017-Nov-16 02:00N 34°60' E 139°43'612.6
2017-Nov-16 01:31N 35°06' E 139°45'612.8
2017-Nov-16 01:01N 35°12' E 139°46'612.1
2017-Nov-16 00:31N 35°18' E 139°44'611.6
2017-Nov-16 00:01N 35°24' E 139°43'612.1
2017-Nov-15 23:31N 35°28' E 139°47'3 6.0
2017-Nov-15 23:00N 35°30' E 139°44'1 1.7
2017-Nov-15 22:29N 35°31' E 139°44'0 0.0
2017-Nov-15 21:59N 35°31' E 139°44'0 0.0
2017-Nov-15 21:29N 35°31' E 139°44'0 0.0
2017-Nov-15 20:59N 35°31' E 139°44'0 0.0
2017-Nov-15 20:26N 35°31' E 139°44'0 0.0
2017-Nov-15 19:59N 35°31' E 139°44'0 0.0
2017-Nov-15 19:29N 35°31' E 139°44'0 0.0
2017-Nov-15 18:59N 35°31' E 139°44'0 0.0
2017-Nov-15 18:29N 35°31' E 139°44'0 0.0
2017-Nov-15 17:59N 35°31' E 139°44'0 0.0
2017-Nov-15 17:29N 35°31' E 139°44'0 0.0
2017-Nov-15 16:59N 35°31' E 139°44'0 0.0
2017-Nov-15 16:29N 35°31' E 139°44'0 0.0
2017-Nov-15 15:59N 35°31' E 139°44'0 0.0
2017-Nov-15 15:29N 35°31' E 139°44'0 0.0
2017-Nov-15 14:59N 35°31' E 139°44'0 0.0
2017-Nov-15 14:29N 35°31' E 139°44'0 0.0
2017-Nov-15 13:59N 35°31' E 139°44'0 0.0
2017-Nov-15 13:29N 35°31' E 139°44'0 0.0
2017-Nov-15 12:59N 35°31' E 139°44'0 0.0
2017-Nov-15 12:29N 35°31' E 139°44'0 0.0
2017-Nov-15 11:59N 35°31' E 139°44'0 0.0
2017-Nov-15 11:29N 35°31' E 139°44'0 0.0
2017-Nov-15 10:59N 35°31' E 139°44'0 0.0
2017-Nov-15 10:26N 35°31' E 139°44'0 0.0
2017-Nov-15 09:59N 35°31' E 139°44'0 0.0
2017-Nov-15 09:29N 35°31' E 139°44'0 0.0
2017-Nov-15 08:59N 35°31' E 139°44'0 0.0
2017-Nov-15 08:26N 35°31' E 139°44'0 0.0
2017-Nov-15 07:59N 35°31' E 139°44'0 0.0
2017-Nov-15 07:29N 35°31' E 139°44'0 0.0
2017-Nov-15 06:59N 35°31' E 139°44'0 0.0
2017-Nov-15 06:29N 35°31' E 139°44'0 0.0
2017-Nov-15 05:59N 35°31' E 139°44'0 0.0
2017-Nov-15 05:29N 35°31' E 139°44'0 0.0
2017-Nov-15 04:59N 35°31' E 139°44'0 0.0
2017-Nov-15 04:29N 35°31' E 139°44'0 0.0
2017-Nov-15 03:59N 35°31' E 139°44'0 0.0
2017-Nov-15 03:29N 35°31' E 139°44'0 0.0
2017-Nov-15 02:59N 35°31' E 139°44'0 0.0
2017-Nov-15 02:29N 35°31' E 139°44'0 0.0
2017-Nov-15 01:59N 35°31' E 139°44'0 0.0
2017-Nov-15 01:29N 35°31' E 139°44'0 0.0
2017-Nov-15 00:59N 35°31' E 139°44'0 0.0
2017-Nov-15 00:26N 35°31' E 139°44'0 0.1
2017-Nov-15 00:00N 35°31' E 139°44'1 1.8
2017-Nov-14 23:30N 35°30' E 139°44'2 4.6
2017-Nov-14 23:00N 35°28' E 139°42'3 5.9
2017-Nov-14 22:30N 35°25' E 139°44'2 4.7
2017-Nov-14 22:00N 35°23' E 139°44'0 0.0
2017-Nov-14 21:30N 35°23' E 139°44'0 0.0
2017-Nov-14 21:00N 35°23' E 139°44'0 0.0
2017-Nov-14 20:30N 35°23' E 139°44'0 0.0
2017-Nov-14 20:00N 35°23' E 139°44'0 0.0
2017-Nov-14 19:30N 35°23' E 139°44'0 0.0
2017-Nov-14 19:00N 35°23' E 139°44'0 0.0
2017-Nov-14 18:30N 35°23' E 139°44'0 0.1
2017-Nov-14 18:00N 35°23' E 139°44'0 0.1
2017-Nov-14 17:30N 35°23' E 139°44'0 0.1
2017-Nov-14 17:00N 35°23' E 139°44'0 0.0
2017-Nov-14 16:30N 35°23' E 139°44'0 0.0
2017-Nov-14 16:00N 35°23' E 139°44'0 0.0
2017-Nov-14 15:30N 35°23' E 139°44'0 0.0
2017-Nov-14 15:00N 35°23' E 139°44'0 0.0
2017-Nov-14 14:30N 35°23' E 139°44'0 0.0
2017-Nov-14 14:00N 35°23' E 139°44'0 0.0
2017-Nov-14 13:30N 35°23' E 139°44'0 0.0
2017-Nov-14 13:00N 35°23' E 139°44'0 0.1
2017-Nov-14 12:30N 35°23' E 139°44'0 0.2
2017-Nov-14 12:00N 35°23' E 139°44'0 0.1
2017-Nov-14 11:30N 35°23' E 139°44'0 0.0
2017-Nov-14 10:57N 35°23' E 139°44'0 0.0
2017-Nov-14 10:30N 35°23' E 139°44'0 0.1
2017-Nov-14 10:00N 35°23' E 139°44'0 0.0
2017-Nov-14 09:30N 35°23' E 139°44'0 0.0
2017-Nov-14 09:00N 35°23' E 139°44'0 0.0
2017-Nov-14 08:30N 35°23' E 139°44'0 0.0
2017-Nov-14 07:57N 35°23' E 139°44'0 0.0
2017-Nov-14 07:30N 35°23' E 139°44'0 0.0
2017-Nov-14 06:54N 35°23' E 139°44'0 0.0
2017-Nov-14 06:30N 35°23' E 139°44'0 0.0
2017-Nov-14 06:00N 35°23' E 139°44'0 0.0
2017-Nov-14 05:30N 35°23' E 139°44'0 0.1
2017-Nov-14 05:00N 35°23' E 139°44'0 0.1
2017-Nov-14 04:30N 35°23' E 139°44'0 0.0
2017-Nov-14 04:00N 35°23' E 139°44'0 0.0
2017-Nov-14 03:30N 35°23' E 139°44'0 0.0
2017-Nov-14 03:00N 35°23' E 139°44'0 0.0
2017-Nov-14 02:30N 35°23' E 139°44'0 0.1
2017-Nov-14 02:00N 35°23' E 139°44'0 0.0
2017-Nov-14 01:30N 35°23' E 139°44'0 0.0
2017-Nov-14 01:00N 35°23' E 139°44'1 2.5
2017-Nov-14 00:30N 35°24' E 139°45'510.2
2017-Nov-14 00:00N 35°28' E 139°48'4 7.3
2017-Nov-13 23:30N 35°31' E 139°46'1 1.0
2017-Nov-13 22:59N 35°32' E 139°45'0 0.0
2017-Nov-13 22:29N 35°32' E 139°45'0 0.0
2017-Nov-13 21:59N 35°32' E 139°45'9 0.5
2017-Nov-13 01:52N 35°22' E 139°44'0 0.1
2017-Nov-13 01:28N 35°22' E 139°44'1 1.9
2017-Nov-13 01:00N 35°22' E 139°44'611.1
2017-Nov-13 00:30N 35°16' E 139°46'511.0
2017-Nov-13 00:00N 35°11' E 139°47'511.0
2017-Nov-12 23:30N 35°06' E 139°45'611.0
2017-Nov-12 23:00N 35°00' E 139°43'510.4
2017-Nov-12 22:30N 34°55' E 139°44'  
Track history (hours):
 
Tides and Currents Weather Stations Pressure Air Temp Water Temp Dewpoint Dewpoint Depression Visibility Wind Speed Wind Dir Waves Ship Positions

Kanyo Maru

Last reported at 2017-Nov-16 02:53 UTC. Time now 2017-Nov-18 21:55 UTC.
Position N 34°52' E 139°49'.

Length 115 m; draft 6.8 m.

Type: Cargo ship. MMSI: 431300018.

Date/timePositionNaut miles runAvg speedWind from/ knotsBaromVisibWave heightAir tempDewpointWater temp
2017-Nov-16 02:53N 34°52' E 139°49'510.9
2017-Nov-16 02:26N 34°55' E 139°44'512.4
2017-Nov-16 02:00N 34°60' E 139°43'612.6
2017-Nov-16 01:31N 35°06' E 139°45'612.8
2017-Nov-16 01:01N 35°12' E 139°46'612.1
2017-Nov-16 00:31N 35°18' E 139°44'611.6
2017-Nov-16 00:01N 35°24' E 139°43'612.1
2017-Nov-15 23:31N 35°28' E 139°47'3 6.0
2017-Nov-15 23:00N 35°30' E 139°44'1 1.7
2017-Nov-15 22:29N 35°31' E 139°44'0 0.0
2017-Nov-15 21:59N 35°31' E 139°44'0 0.0
2017-Nov-15 21:29N 35°31' E 139°44'0 0.0
2017-Nov-15 20:59N 35°31' E 139°44'0 0.0
2017-Nov-15 20:26N 35°31' E 139°44'0 0.0
2017-Nov-15 19:59N 35°31' E 139°44'0 0.0
2017-Nov-15 19:29N 35°31' E 139°44'0 0.0
2017-Nov-15 18:59N 35°31' E 139°44'0 0.0
2017-Nov-15 18:29N 35°31' E 139°44'0 0.0
2017-Nov-15 17:59N 35°31' E 139°44'0 0.0
2017-Nov-15 17:29N 35°31' E 139°44'0 0.0
2017-Nov-15 16:59N 35°31' E 139°44'0 0.0
2017-Nov-15 16:29N 35°31' E 139°44'0 0.0
2017-Nov-15 15:59N 35°31' E 139°44'0 0.0
2017-Nov-15 15:29N 35°31' E 139°44'0 0.0
2017-Nov-15 14:59N 35°31' E 139°44'0 0.0
2017-Nov-15 14:29N 35°31' E 139°44'0 0.0
2017-Nov-15 13:59N 35°31' E 139°44'0 0.0
2017-Nov-15 13:29N 35°31' E 139°44'0 0.0
2017-Nov-15 12:59N 35°31' E 139°44'0 0.0
2017-Nov-15 12:29N 35°31' E 139°44'0 0.0
2017-Nov-15 11:59N 35°31' E 139°44'0 0.0
2017-Nov-15 11:29N 35°31' E 139°44'0 0.0
2017-Nov-15 10:59N 35°31' E 139°44'0 0.0
2017-Nov-15 10:26N 35°31' E 139°44'0 0.0
2017-Nov-15 09:59N 35°31' E 139°44'0 0.0
2017-Nov-15 09:29N 35°31' E 139°44'0 0.0
2017-Nov-15 08:59N 35°31' E 139°44'0 0.0
2017-Nov-15 08:26N 35°31' E 139°44'0 0.0
2017-Nov-15 07:59N 35°31' E 139°44'0 0.0
2017-Nov-15 07:29N 35°31' E 139°44'0 0.0
2017-Nov-15 06:59N 35°31' E 139°44'0 0.0
2017-Nov-15 06:29N 35°31' E 139°44'0 0.0
2017-Nov-15 05:59N 35°31' E 139°44'0 0.0
2017-Nov-15 05:29N 35°31' E 139°44'0 0.0
2017-Nov-15 04:59N 35°31' E 139°44'0 0.0
2017-Nov-15 04:29N 35°31' E 139°44'0 0.0
2017-Nov-15 03:59N 35°31' E 139°44'0 0.0
2017-Nov-15 03:29N 35°31' E 139°44'0 0.0
2017-Nov-15 02:59N 35°31' E 139°44'0 0.0
2017-Nov-15 02:29N 35°31' E 139°44'0 0.0
2017-Nov-15 01:59N 35°31' E 139°44'0 0.0
2017-Nov-15 01:29N 35°31' E 139°44'0 0.0
2017-Nov-15 00:59N 35°31' E 139°44'0 0.0
2017-Nov-15 00:26N 35°31' E 139°44'0 0.1
2017-Nov-15 00:00N 35°31' E 139°44'1 1.8
2017-Nov-14 23:30N 35°30' E 139°44'2 4.6
2017-Nov-14 23:00N 35°28' E 139°42'3 5.9
2017-Nov-14 22:30N 35°25' E 139°44'2 4.7
2017-Nov-14 22:00N 35°23' E 139°44'0 0.0
2017-Nov-14 21:30N 35°23' E 139°44'0 0.0
2017-Nov-14 21:00N 35°23' E 139°44'0 0.0
2017-Nov-14 20:30N 35°23' E 139°44'0 0.0
2017-Nov-14 20:00N 35°23' E 139°44'0 0.0
2017-Nov-14 19:30N 35°23' E 139°44'0 0.0
2017-Nov-14 19:00N 35°23' E 139°44'0 0.0
2017-Nov-14 18:30N 35°23' E 139°44'0 0.1
2017-Nov-14 18:00N 35°23' E 139°44'0 0.1
2017-Nov-14 17:30N 35°23' E 139°44'0 0.1
2017-Nov-14 17:00N 35°23' E 139°44'0 0.0
2017-Nov-14 16:30N 35°23' E 139°44'0 0.0
2017-Nov-14 16:00N 35°23' E 139°44'0 0.0
2017-Nov-14 15:30N 35°23' E 139°44'0 0.0
2017-Nov-14 15:00N 35°23' E 139°44'0 0.0
2017-Nov-14 14:30N 35°23' E 139°44'0 0.0
2017-Nov-14 14:00N 35°23' E 139°44'0 0.0
2017-Nov-14 13:30N 35°23' E 139°44'0 0.0
2017-Nov-14 13:00N 35°23' E 139°44'0 0.1
2017-Nov-14 12:30N 35°23' E 139°44'0 0.2
2017-Nov-14 12:00N 35°23' E 139°44'0 0.1
2017-Nov-14 11:30N 35°23' E 139°44'0 0.0
2017-Nov-14 10:57N 35°23' E 139°44'0 0.0
2017-Nov-14 10:30N 35°23' E 139°44'0 0.1
2017-Nov-14 10:00N 35°23' E 139°44'0 0.0
2017-Nov-14 09:30N 35°23' E 139°44'0 0.0
2017-Nov-14 09:00N 35°23' E 139°44'0 0.0
2017-Nov-14 08:30N 35°23' E 139°44'0 0.0
2017-Nov-14 07:57N 35°23' E 139°44'0 0.0
2017-Nov-14 07:30N 35°23' E 139°44'0 0.0
2017-Nov-14 06:54N 35°23' E 139°44'0 0.0
2017-Nov-14 06:30N 35°23' E 139°44'0 0.0
2017-Nov-14 06:00N 35°23' E 139°44'0 0.0
2017-Nov-14 05:30N 35°23' E 139°44'0 0.1
2017-Nov-14 05:00N 35°23' E 139°44'0 0.1
2017-Nov-14 04:30N 35°23' E 139°44'0 0.0
2017-Nov-14 04:00N 35°23' E 139°44'0 0.0
2017-Nov-14 03:30N 35°23' E 139°44'0 0.0
2017-Nov-14 03:00N 35°23' E 139°44'0 0.0
2017-Nov-14 02:30N 35°23' E 139°44'0 0.1
2017-Nov-14 02:00N 35°23' E 139°44'0 0.0
2017-Nov-14 01:30N 35°23' E 139°44'0 0.0
2017-Nov-14 01:00N 35°23' E 139°44'1 2.5
2017-Nov-14 00:30N 35°24' E 139°45'510.2
2017-Nov-14 00:00N 35°28' E 139°48'4 7.3
2017-Nov-13 23:30N 35°31' E 139°46'1 1.0
2017-Nov-13 22:59N 35°32' E 139°45'0 0.0
2017-Nov-13 22:29N 35°32' E 139°45'0 0.0
2017-Nov-13 21:59N 35°32' E 139°45'9 0.5
2017-Nov-13 01:52N 35°22' E 139°44'0 0.1
2017-Nov-13 01:28N 35°22' E 139°44'1 1.9
2017-Nov-13 01:00N 35°22' E 139°44'611.1
2017-Nov-13 00:30N 35°16' E 139°46'511.0
2017-Nov-13 00:00N 35°11' E 139°47'511.0
2017-Nov-12 23:30N 35°06' E 139°45'611.0
2017-Nov-12 23:00N 35°00' E 139°43'510.4
2017-Nov-12 22:30N 34°55' E 139°44'  

Dump ship's entire track history